Nearby METAR Reports

 

KORH - Worcester, Massachusetts, USA
Distance from station: NW 4mi, 7km
Updated: Thu, 06-May-2021 2:54pm EDT
Clear
Clear
 Wind from NW
Wind: NW 14 mph , 22 km/h, Gust: 22 mph , 35 km/h
Temperature: 61°F , 16°C
Dew Point: 32°F , 0°C
Humidity: 34%
Barometer: 29.85 inHg , 1010.8 hPa
Clouds: Clear
Visibility: 10 miles , 16 km
2021/05/06 18:54 KORH 061854Z 31012G19KT 10SM CLR 16/00 A2985 RMK AO2 PK WND 31026/1810 SLP109 T01560000
KBOS - Boston, Massachusetts, USA
Distance from station: ENE 42mi, 68km
Updated: Thu, 06-May-2021 2:54pm EDT
Few Clouds
Few Clouds
 Wind from NNW
Wind: NNW 10 mph , 17 km/h, Gust: 21 mph , 33 km/h
Temperature: 64°F , 18°C
Dew Point: 32°F , 0°C
Humidity: 30%
Barometer: 29.82 inHg , 1009.8 hPa
Clouds: Few Clouds
Visibility: 10 miles , 16 km
Cloud details: Few Clouds 5500 ft
2021/05/06 18:54 KBOS 061854Z 34009G18KT 10SM FEW055 18/00 A2982 RMK AO2 SLP098 T01830000
 
KCQX - Chatham, Massachusetts, USA
Distance from station: SE 102mi, 164km
Updated: Thu, 06-May-2021 2:52pm EDT
Clear
Clear
 Wind from NW
Wind: NW 9 mph , 15 km/h, Gust: 21 mph , 33 km/h
Temperature: 61°F , 16°C
Dew Point: 36°F , 2°C
Humidity: 39%
Barometer: 29.84 inHg , 1010.5 hPa
Clouds: Clear
Visibility: 10 miles , 16 km
2021/05/06 18:52 KCQX 061852Z AUTO 32008G18KT 280V020 10SM CLR 16/02 A2984 RMK AO2 SLP105 T01610022
KMVY - Marthas Vineyard, Massachusetts, USA
Distance from station: SE 84mi, 135km
Updated: Thu, 06-May-2021 2:53pm EDT
Clear
Clear
 Wind from NW
Wind: NW 9 mph , 15 km/h, Gust: 17 mph , 28 km/h
Temperature: 64°F , 18°C
Dew Point: 36°F , 2°C
Humidity: 34%
Barometer: 29.83 inHg , 1010.2 hPa
Clouds: Clear
Visibility: 10 miles , 16 km
2021/05/06 18:53 KMVY 061853Z 32008G15KT 10SM CLR 18/02 A2983 RMK AO2 SLP100 T01830022
 
KPVC - Provincetown, Massachusetts, USA
Distance from station: NNW 85mi, 136km
Updated: Thu, 06-May-2021 2:56pm EDT
Clear
Clear
 Wind from WNW
Wind: WNW 8 mph , 13 km/h
Temperature: 57°F , 14°C
Dew Point: 41°F , 5°C
Humidity: 55%
Barometer: 29.84 inHg , 1010.5 hPa
Clouds: Clear
Visibility: 10 miles , 16 km
2021/05/06 18:56 KPVC 061856Z AUTO 30007KT 10SM CLR 14/05 A2984 RMK AO2 SLP103 T01390050 $
KAQW - Savoy, Massachusetts, USA
Distance from station: NNW 66mi, 106km
Updated: Thu, 06-May-2021 2:52pm EDT
Clear
Clear
 Wind from NNW
Wind: NNW 14 mph , 22 km/h, Gust: 21 mph , 33 km/h
Temperature: 59°F , 15°C
Dew Point: 30°F , -1°C
Humidity: 34%
Barometer: 29.88 inHg , 1011.9 hPa
Clouds: Clear
Visibility: 10 miles , 16 km
2021/05/06 18:52 KAQW 061852Z AUTO 33012G18KT 10SM CLR 15/M01 A2988 RMK AO2 SLP121 T01501011
 
KIZG - Fryeburg, Maine, USA
Distance from station: NNE 133mi, 214km
Updated: Thu, 06-May-2021 2:54pm EDT
Clear
Clear
 Wind from WNW
Wind: WNW 10 mph , 17 km/h, Gust: 20 mph , 31 km/h
Temperature: 59°F , 15°C
Dew Point: 30°F , -1°C
Humidity: 34%
Barometer: 29.82 inHg , 1009.8 hPa
Clouds: Clear
Visibility: 10 miles , 16 km
2021/05/06 18:54 KIZG 061854Z AUTO 30009G17KT 10SM CLR 15/M01 A2982 RMK AO2 SLP098 T01501006
KMWN - Mt Washington, New Hampshire, USA
Distance from station: NNE 146mi, 234km
Updated: Thu, 06-May-2021 2:50pm EDT
Freezing fog, Overcast
Freezing fog, Overcast
 Wind from WNW
Wind: WNW 59 mph , 94 km/h, Gust: 68 mph , 109 km/h
Temperature: 23°F , -5°C
Wind Chill: 0°F , -18°C
Dew Point: 23°F , -5°C
Humidity: 100%
Summary: Freezing Fog
Clouds: Overcast
Visibility: 1/16 mile , 0.1 km
Cloud details: Overcast 200 ft
2021/05/06 18:50 KMWN 061850Z 30051G59KT 1/16SM FZFG VV002 M05/M05 RMK VRY LGT ICG SUN DMLY VSBL
 
KBML - Berlin, New Hampshire, USA
Distance from station: NNE 160mi, 257km
Updated: Thu, 06-May-2021 1:52pm EDT
NOT Current
Overcast
Overcast
 Wind from NW
Wind: NW 8 mph , 13 km/h, Gust: 20 mph , 31 km/h
Temperature: 52°F , 11°C
Dew Point: 32°F , 0°C
Humidity: 47%
Barometer: 29.84 inHg , 1010.5 hPa
Clouds: Overcast
Visibility: 10 miles , 16 km
Cloud details: Mostly cloudy 4300 ft
Overcast 5000 ft
2021/05/06 17:52 KBML 061752Z AUTO 31007G17KT 260V350 10SM BKN043 OVC050 11/00 A2984 RMK AO2 SLP110 T01060000 10111 20061 51010